createdAt,value
2018-04-22T00:01:09.451Z,8.57
2018-04-22T00:03:37.898Z,5.50
2018-04-22T00:06:07.276Z,5.80
2018-04-22T00:08:35.902Z,5.93
2018-04-22T00:11:04.328Z,4.27
2018-04-22T00:13:32.670Z,5.97
2018-04-22T00:16:02.239Z,4.20
2018-04-22T00:18:30.700Z,5.07
2018-04-22T00:20:59.153Z,5.83
2018-04-22T00:23:27.491Z,5.17
2018-04-22T00:25:56.975Z,6.47
2018-04-22T00:28:26.099Z,5.70
2018-04-22T00:30:54.440Z,5.63
2018-04-22T00:33:22.792Z,6.00
2018-04-22T00:35:51.128Z,4.50
2018-04-22T00:38:20.230Z,5.17
2018-04-22T00:40:48.578Z,5.93
2018-04-22T00:43:17.108Z,8.90
2018-04-22T00:45:45.621Z,6.27
2018-04-22T00:48:14.053Z,6.43
2018-04-22T00:50:43.801Z,6.97
2018-04-22T00:53:12.141Z,6.20
2018-04-22T00:55:41.353Z,5.43
2018-04-22T00:58:09.702Z,3.67
2018-04-22T01:00:38.895Z,5.07
2018-04-22T01:03:07.241Z,5.03
2018-04-22T01:05:35.586Z,4.73
2018-04-22T01:08:03.932Z,6.40
2018-04-22T01:10:33.058Z,4.50
2018-04-22T01:13:01.517Z,6.30
2018-04-22T01:15:29.924Z,7.80
2018-04-22T01:17:58.264Z,5.73
2018-04-22T01:20:26.715Z,6.90
2018-04-22T01:22:55.101Z,7.30
2018-04-22T01:25:23.425Z,7.73
2018-04-22T01:27:51.767Z,6.07
2018-04-22T01:30:20.903Z,6.50
2018-04-22T01:32:50.039Z,7.60
2018-04-22T01:35:18.454Z,5.80
2018-04-22T01:37:46.817Z,7.30
2018-04-22T01:40:15.258Z,7.70
2018-04-22T01:42:43.814Z,4.60
2018-04-22T01:45:12.147Z,8.73
2018-04-22T01:47:40.732Z,6.43
2018-04-22T01:50:09.119Z,4.07
2018-04-22T01:52:37.488Z,4.03
2018-04-22T01:55:05.871Z,4.80
2018-04-22T01:57:34.334Z,6.23
2018-04-22T02:00:02.676Z,5.07
2018-04-22T02:02:31.795Z,7.93
2018-04-22T02:05:00.199Z,6.07
2018-04-22T02:07:28.578Z,4.53
2018-04-22T02:09:57.053Z,5.77
2018-04-22T02:12:25.418Z,5.10
2018-04-22T02:14:54.064Z,4.87
2018-04-22T02:17:22.409Z,4.03
2018-04-22T02:19:50.743Z,8.47
2018-04-22T02:22:19.156Z,5.00
2018-04-22T02:24:47.501Z,5.57
2018-04-22T02:27:16.660Z,4.17
2018-04-22T02:29:44.962Z,5.63
2018-04-22T02:32:14.101Z,9.60
2018-04-22T02:34:42.479Z,5.23
2018-04-22T02:37:10.834Z,4.80
2018-04-22T02:39:39.255Z,6.80
2018-04-22T02:42:08.116Z,5.10
2018-04-22T02:44:36.451Z,6.53
2018-04-22T02:47:04.890Z,4.70
2018-04-22T02:49:33.250Z,7.07
2018-04-22T02:52:01.593Z,10.43
2018-04-22T02:54:30.031Z,6.70
2018-04-22T02:56:58.373Z,6.13
2018-04-22T02:59:27.495Z,6.57
2018-04-22T03:01:55.891Z,4.60
2018-04-22T03:04:24.427Z,5.77
2018-04-22T03:06:54.165Z,7.00
2018-04-22T03:09:22.511Z,9.33
2018-04-22T03:11:51.649Z,6.97
2018-04-22T03:14:19.997Z,4.53
2018-04-22T03:16:49.340Z,8.03
2018-04-22T03:19:17.686Z,5.63
2018-04-22T03:21:46.030Z,3.97
2018-04-22T03:24:14.409Z,5.97
2018-04-22T03:26:42.942Z,4.93
2018-04-22T03:29:11.305Z,6.33
2018-04-22T03:31:39.699Z,5.10
2018-04-22T03:34:08.176Z,6.00
2018-04-22T03:36:37.041Z,6.23
2018-04-22T03:39:06.587Z,5.43
2018-04-22T03:41:36.312Z,6.97
2018-04-22T03:44:05.557Z,8.07
2018-04-22T03:46:33.901Z,3.73
2018-04-22T03:49:02.240Z,6.60
2018-04-22T03:51:30.658Z,6.50
2018-04-22T03:53:58.998Z,7.20
2018-04-22T03:56:27.375Z,6.40
2018-04-22T03:58:55.985Z,7.27
2018-04-22T04:01:24.477Z,5.80
2018-04-22T04:03:52.911Z,11.07
2018-04-22T04:06:21.273Z,8.50
2018-04-22T04:08:49.634Z,7.63
2018-04-22T04:11:18.135Z,7.50
2018-04-22T04:13:46.545Z,6.47
2018-04-22T04:16:14.936Z,7.47
2018-04-22T04:19:04.371Z,6.47
2018-04-22T04:21:44.640Z,8.07
2018-04-22T04:30:24.596Z,8.87
2018-04-22T04:32:52.959Z,5.13
2018-04-22T04:35:21.356Z,9.97
2018-04-22T04:37:49.726Z,10.87
2018-04-22T04:40:18.117Z,6.40
2018-04-22T04:42:46.458Z,6.60
2018-04-22T04:45:14.864Z,7.83
2018-04-22T04:47:43.206Z,7.87
2018-04-22T04:50:11.559Z,5.93
2018-04-22T04:52:40.676Z,5.60
2018-04-22T04:55:09.028Z,9.27
2018-04-22T04:57:38.157Z,8.23
2018-04-22T05:00:06.492Z,6.47
2018-04-22T05:02:34.869Z,11.93
2018-04-22T05:05:03.319Z,16.50
2018-04-22T05:07:31.819Z,8.57
2018-04-22T05:10:00.992Z,6.73
2018-04-22T05:12:29.399Z,6.10
2018-04-22T05:14:57.738Z,5.73
2018-04-22T05:17:26.074Z,6.67
2018-04-22T05:19:54.420Z,6.77
2018-04-22T05:22:23.450Z,6.33
2018-04-22T05:24:52.567Z,9.43
2018-04-22T05:27:21.681Z,7.07
2018-04-22T05:29:50.177Z,10.37
2018-04-22T05:32:18.575Z,6.67
2018-04-22T05:34:47.017Z,6.43
2018-04-22T05:37:15.496Z,8.13
2018-04-22T05:39:44.681Z,9.40
2018-04-22T05:42:13.781Z,10.40
2018-04-22T05:44:42.913Z,8.87
2018-04-22T05:47:11.299Z,8.17
2018-04-22T05:49:39.660Z,8.97
2018-04-22T05:52:08.013Z,7.93
2018-04-22T05:54:37.210Z,8.90
2018-04-22T05:57:05.568Z,9.17
2018-04-22T05:59:33.927Z,7.27
2018-04-22T06:02:02.265Z,8.17
2018-04-22T06:04:30.727Z,7.67
2018-04-22T06:06:59.864Z,8.13
2018-04-22T06:09:28.240Z,7.30
2018-04-22T06:11:56.618Z,9.70
2018-04-22T06:14:24.975Z,6.80
2018-04-22T06:16:53.376Z,10.50
2018-04-22T06:19:21.740Z,11.33
2018-04-22T06:21:50.097Z,9.03
2018-04-22T06:24:19.302Z,8.33
2018-04-22T06:26:48.418Z,8.20
2018-04-22T06:29:16.771Z,9.30
2018-04-22T06:31:45.208Z,6.67
2018-04-22T06:34:13.532Z,9.87
2018-04-22T06:36:42.672Z,11.40
2018-04-22T06:39:11.093Z,8.73
2018-04-22T06:41:39.525Z,8.63
2018-04-22T06:44:08.074Z,7.87
2018-04-22T06:46:37.266Z,9.10
2018-04-22T06:49:05.645Z,12.13
2018-04-22T06:51:34.012Z,8.20
2018-04-22T06:54:02.504Z,7.87
2018-04-22T06:56:31.927Z,8.50
2018-04-22T06:59:01.435Z,7.77
2018-04-22T07:01:29.802Z,8.87
2018-04-22T07:03:58.155Z,8.73
2018-04-22T07:06:27.260Z,9.87
2018-04-22T07:08:55.840Z,8.53
2018-04-22T07:11:24.423Z,7.67
2018-04-22T07:13:52.795Z,9.53
2018-04-22T07:16:21.972Z,6.77
2018-04-22T07:18:50.344Z,8.07
2018-04-22T07:21:18.732Z,13.33
2018-04-22T07:23:47.173Z,9.67
2018-04-22T07:26:18.517Z,8.40
2018-04-22T07:28:46.959Z,10.40
2018-04-22T07:31:15.356Z,7.20
2018-04-22T07:33:44.312Z,5.73
2018-04-22T07:36:12.830Z,8.53
2018-04-22T07:38:42.464Z,9.27
2018-04-22T07:41:10.875Z,6.67
2018-04-22T07:43:39.224Z,7.53
2018-04-22T07:46:07.574Z,10.00
2018-04-22T07:48:35.939Z,9.53
2018-04-22T07:51:04.293Z,8.80
2018-04-22T07:53:32.832Z,10.13
2018-04-22T07:56:02.099Z,8.73
2018-04-22T07:58:30.567Z,8.50
2018-04-22T08:00:58.918Z,7.97
2018-04-22T08:03:27.435Z,9.67
2018-04-22T08:05:55.830Z,6.17
2018-04-22T08:08:24.199Z,8.80
2018-04-22T08:10:52.560Z,9.52
2018-04-22T08:13:21.710Z,6.80
2018-04-22T08:15:51.743Z,8.60
2018-04-22T08:18:20.153Z,8.63
2018-04-22T08:20:48.535Z,7.07
2018-04-22T08:23:19.674Z,11.23
2018-04-22T08:25:48.109Z,8.02
2018-04-22T08:28:17.519Z,9.70
2018-04-22T08:30:45.846Z,9.77
2018-04-22T08:33:14.283Z,10.38
2018-04-22T08:35:43.513Z,11.52
2018-04-22T08:38:11.935Z,12.45
2018-04-22T08:40:40.283Z,11.45
2018-04-22T08:43:08.875Z,10.57
2018-04-22T08:45:37.295Z,11.70
2018-04-22T08:48:05.702Z,12.98
2018-04-22T08:50:34.165Z,12.65
2018-04-22T08:53:03.290Z,13.83
2018-04-22T08:55:31.929Z,12.03
2018-04-22T08:58:00.413Z,12.87
2018-04-22T09:00:32.399Z,16.43
2018-04-22T09:03:01.550Z,14.73
2018-04-22T09:05:30.048Z,11.23
2018-04-22T09:07:58.514Z,11.20
2018-04-22T09:10:26.924Z,13.07
2018-04-22T09:12:55.451Z,13.73
2018-04-22T09:15:23.819Z,12.10
2018-04-22T09:17:52.173Z,13.63
2018-04-22T09:20:25.066Z,11.70
2018-04-22T09:22:54.215Z,21.63
2018-04-22T09:25:22.610Z,11.70
2018-04-22T09:27:54.492Z,12.40
2018-04-22T09:30:24.706Z,12.70
2018-04-22T09:32:53.067Z,24.85
2018-04-22T09:35:21.476Z,14.45
2018-04-22T09:37:49.822Z,24.08
2018-04-22T09:40:18.673Z,19.75
2018-04-22T09:42:47.888Z,12.00
2018-04-22T09:45:16.283Z,15.80
2018-04-22T09:47:47.014Z,10.85
2018-04-22T09:50:15.522Z,11.98
2018-04-22T09:52:44.306Z,12.80
2018-04-22T09:55:12.787Z,14.23
2018-04-22T09:57:41.362Z,11.05
2018-04-22T10:00:09.807Z,16.75
2018-04-22T10:02:38.175Z,26.02
2018-04-22T10:05:08.586Z,12.88
2018-04-22T10:07:36.948Z,14.13
2018-04-22T10:10:06.064Z,15.45
2018-04-22T10:12:34.681Z,11.32
2018-04-22T10:15:03.032Z,15.38
2018-04-22T10:17:31.426Z,14.73
2018-04-22T10:19:59.784Z,16.17
2018-04-22T10:22:28.313Z,13.38
2018-04-22T10:24:57.168Z,16.65
2018-04-22T10:27:25.630Z,15.30
2018-04-22T10:29:54.214Z,16.10
2018-04-22T10:32:23.788Z,16.42
2018-04-22T10:34:52.303Z,11.88
2018-04-22T10:37:21.555Z,11.77
2018-04-22T10:39:50.138Z,14.45
2018-04-22T10:42:19.842Z,19.02
2018-04-22T10:44:49.198Z,13.57
2018-04-22T10:47:19.839Z,16.77
2018-04-22T10:49:48.299Z,17.25
2018-04-22T10:52:16.741Z,15.85
2018-04-22T10:54:45.126Z,15.32
2018-04-22T10:57:13.530Z,14.60
2018-04-22T10:59:41.872Z,14.87
2018-04-22T11:02:10.242Z,16.52
2018-04-22T11:04:39.667Z,13.77
2018-04-22T11:07:08.025Z,16.70
2018-04-22T11:09:36.414Z,18.73
2018-04-22T11:12:04.825Z,13.88
2018-04-22T11:14:33.260Z,14.50
2018-04-22T11:17:01.660Z,11.15
2018-04-22T11:19:30.041Z,12.30
2018-04-22T11:21:58.401Z,14.87
2018-04-22T11:24:27.482Z,13.93
2018-04-22T11:26:55.825Z,11.35
2018-04-22T11:29:24.278Z,15.88
2018-04-22T11:31:52.859Z,14.18
2018-04-22T11:34:21.207Z,15.18
2018-04-22T11:36:49.616Z,14.38
2018-04-22T11:39:17.998Z,14.00
2018-04-22T11:41:46.372Z,13.62
2018-04-22T11:44:14.731Z,16.17
2018-04-22T11:46:43.140Z,16.02
2018-04-22T11:49:11.661Z,15.43
2018-04-22T11:51:40.892Z,12.98
2018-04-22T11:54:09.243Z,12.52
2018-04-22T11:56:38.696Z,14.43
2018-04-22T11:59:07.172Z,14.55
2018-04-22T12:01:35.552Z,14.52
2018-04-22T12:04:04.968Z,12.45
2018-04-22T12:06:33.342Z,14.90
2018-04-22T12:09:01.722Z,12.13
2018-04-22T12:11:30.081Z,11.40
2018-04-22T12:13:58.444Z,14.02
2018-04-22T12:16:26.860Z,12.10
2018-04-22T12:18:55.458Z,13.05
2018-04-22T12:21:23.930Z,12.98
2018-04-22T12:23:52.395Z,12.02
2018-04-22T12:26:20.774Z,13.88
2018-04-22T12:28:49.169Z,12.13
2018-04-22T12:31:17.530Z,15.00
2018-04-22T12:33:45.945Z,16.27
2018-04-22T12:36:14.388Z,12.57
2018-04-22T12:38:42.840Z,14.50
2018-04-22T12:41:11.980Z,15.85
2018-04-22T12:43:40.342Z,16.05
2018-04-22T12:46:08.860Z,16.65
2018-04-22T12:48:37.302Z,18.85
2018-04-22T12:51:05.782Z,14.60
2018-04-22T12:53:34.908Z,12.48
2018-04-22T12:56:03.287Z,13.20
2018-04-22T12:58:31.645Z,13.32
2018-04-22T13:01:00.115Z,13.85
2018-04-22T13:03:28.630Z,14.75
2018-04-22T13:05:57.033Z,18.87
2018-04-22T13:08:25.421Z,14.63
2018-04-22T13:10:53.869Z,13.95
2018-04-22T13:13:22.245Z,13.50
2018-04-22T13:15:50.613Z,12.10
2018-04-22T13:18:19.107Z,11.15
2018-04-22T13:20:48.247Z,13.82
2018-04-22T13:23:16.613Z,13.25
2018-04-22T13:25:45.126Z,12.48
2018-04-22T13:28:13.515Z,14.00
2018-04-22T13:30:41.927Z,11.90
2018-04-22T13:33:10.302Z,12.00
2018-04-22T13:35:38.680Z,11.82
2018-04-22T13:38:07.267Z,11.90
2018-04-22T13:40:35.693Z,10.82
2018-04-22T13:43:04.835Z,14.40
2018-04-22T13:45:33.212Z,13.23
2018-04-22T13:48:01.589Z,11.25
2018-04-22T13:50:29.962Z,12.57
2018-04-22T13:52:58.523Z,13.07
2018-04-22T13:55:26.893Z,12.35
2018-04-22T13:57:55.269Z,12.90
2018-04-22T14:00:24.472Z,13.60
2018-04-22T14:02:52.911Z,15.75
2018-04-22T14:05:21.280Z,20.00
2018-04-22T14:07:49.628Z,14.60
2018-04-22T14:10:18.681Z,14.07
2018-04-22T14:12:47.089Z,13.32
2018-04-22T14:15:16.224Z,12.70
2018-04-22T14:17:44.615Z,13.82
2018-04-22T14:20:13.511Z,11.70
2018-04-22T14:22:41.925Z,12.32
2018-04-22T14:25:10.533Z,12.10
2018-04-22T14:27:38.956Z,12.00
2018-04-22T14:30:07.385Z,10.27
2018-04-22T14:32:36.522Z,15.05
2018-04-22T14:35:04.875Z,12.18
2018-04-22T14:37:33.403Z,11.80
2018-04-22T14:40:01.979Z,11.90
2018-04-22T14:42:30.361Z,11.88
2018-04-22T14:45:10.617Z,14.87
2018-04-22T14:47:39.026Z,21.90
2018-04-22T14:50:07.471Z,13.02
2018-04-22T14:52:35.835Z,9.88
2018-04-22T14:55:04.300Z,13.93
2018-04-22T14:57:32.643Z,13.52
2018-04-22T15:00:01.032Z,15.15
2018-04-22T15:02:29.497Z,14.23
2018-04-22T15:04:58.357Z,13.45
2018-04-22T15:07:26.729Z,11.55
2018-04-22T15:09:55.152Z,12.43
2018-04-22T15:12:23.546Z,12.20
2018-04-22T15:14:51.914Z,10.35
2018-04-22T15:17:20.299Z,11.82
2018-04-22T15:19:48.834Z,14.70
2018-04-22T15:22:17.228Z,10.00
2018-04-22T15:24:45.587Z,12.18
2018-04-22T15:27:13.965Z,13.18
2018-04-22T15:29:43.003Z,16.37
2018-04-22T15:32:11.369Z,14.55
2018-04-22T15:34:39.871Z,11.20
2018-04-22T15:37:08.252Z,12.15
2018-04-22T15:39:36.710Z,11.60
2018-04-22T15:42:05.305Z,12.77
2018-04-22T15:44:33.695Z,14.63
2018-04-22T15:47:02.348Z,12.13
2018-04-22T15:49:30.727Z,15.07
2018-04-22T15:51:59.083Z,15.18
2018-04-22T15:54:27.467Z,21.58
2018-04-22T15:56:55.815Z,14.13
2018-04-22T15:59:24.951Z,14.32
2018-04-22T16:01:53.454Z,14.15
2018-04-22T16:04:22.133Z,14.87
2018-04-22T16:06:51.758Z,15.55
2018-04-22T16:09:20.278Z,19.67
2018-04-22T16:11:49.429Z,15.60
2018-04-22T16:14:17.833Z,15.20
2018-04-22T16:16:46.313Z,19.30
2018-04-22T16:19:14.682Z,12.88
2018-04-22T16:21:43.696Z,14.98
2018-04-22T16:24:12.073Z,18.85
2018-04-22T16:26:40.518Z,13.98
2018-04-22T16:29:08.880Z,14.27
2018-04-22T16:31:37.280Z,48.92
2018-04-22T16:34:05.694Z,24.02
2018-04-22T16:36:34.144Z,16.42
2018-04-22T16:39:02.516Z,14.85
2018-04-22T16:41:30.931Z,21.05
2018-04-22T16:43:59.301Z,25.62
2018-04-22T16:46:27.695Z,21.15
2018-04-22T16:48:56.088Z,17.23
2018-04-22T16:51:25.225Z,16.70
2018-04-22T16:53:53.666Z,17.65
2018-04-22T16:56:22.793Z,18.35
2018-04-22T16:58:51.179Z,16.15
2018-04-22T17:01:19.606Z,17.62
2018-04-22T17:03:47.935Z,17.42
2018-04-22T17:06:16.853Z,20.02
2018-04-22T17:08:45.299Z,18.20
2018-04-22T17:11:13.654Z,15.77
2018-04-22T17:13:42.819Z,15.95
2018-04-22T17:16:11.193Z,17.20
2018-04-22T17:18:39.997Z,21.27
2018-04-22T17:21:08.397Z,21.10
2018-04-22T17:23:37.512Z,17.62
2018-04-22T17:26:06.111Z,22.35
2018-04-22T17:28:34.465Z,19.55
2018-04-22T17:31:02.858Z,18.48
2018-04-22T17:33:31.212Z,12.00
2018-04-22T17:36:00.644Z,12.15
2018-04-22T17:38:29.898Z,10.45
2018-04-22T17:40:58.255Z,10.07
2018-04-22T17:43:26.619Z,10.70
2018-04-22T17:45:55.088Z,11.87
2018-04-22T17:48:23.552Z,8.23
2018-04-22T17:50:52.698Z,9.13
2018-04-22T17:53:21.115Z,9.13
2018-04-22T17:55:49.557Z,5.87
2018-04-22T17:58:17.893Z,7.10
2018-04-22T18:00:46.233Z,6.83
2018-04-22T18:03:14.699Z,5.60
2018-04-22T18:05:43.031Z,6.57
2018-04-22T18:08:11.703Z,6.57
2018-04-22T18:10:40.041Z,5.33
2018-04-22T18:13:08.377Z,6.03
2018-04-22T18:15:36.788Z,4.67
2018-04-22T18:18:05.165Z,4.87
2018-04-22T18:20:33.474Z,7.53
2018-04-22T18:23:01.815Z,7.73
2018-04-22T18:25:30.189Z,5.00
2018-04-22T18:27:59.403Z,6.30
2018-04-22T18:30:27.751Z,5.13
2018-04-22T18:32:56.114Z,6.60
2018-04-22T18:35:25.433Z,4.87
2018-04-22T18:37:53.969Z,4.27
2018-04-22T18:40:22.412Z,7.73
2018-04-22T18:42:50.738Z,5.43
2018-04-22T18:45:19.226Z,4.50
2018-04-22T18:47:47.749Z,5.60
2018-04-22T18:50:16.092Z,5.33
2018-04-22T18:52:45.832Z,7.07
2018-04-22T18:55:14.202Z,4.10
2018-04-22T18:57:42.551Z,4.33
2018-04-22T19:00:10.994Z,5.37
2018-04-22T19:02:39.311Z,4.67
2018-04-22T19:05:07.675Z,5.40
2018-04-22T19:07:36.786Z,4.00
2018-04-22T19:10:05.937Z,5.13
2018-04-22T19:12:34.294Z,3.90
2018-04-22T19:15:02.632Z,5.27
2018-04-22T19:17:30.988Z,3.50
2018-04-22T19:19:59.335Z,6.60
2018-04-22T19:22:27.705Z,3.87
2018-04-22T19:24:56.904Z,5.43
2018-04-22T19:27:25.257Z,3.93
2018-04-22T19:29:53.795Z,2.97
2018-04-22T19:32:22.140Z,4.43
2018-04-22T19:34:50.581Z,3.40
2018-04-22T19:37:19.139Z,4.00
2018-04-22T19:39:47.608Z,3.30
2018-04-22T19:42:15.977Z,5.40
2018-04-22T19:44:44.331Z,5.67
2018-04-22T19:47:13.446Z,1.90
2018-04-22T19:49:41.807Z,3.83
2018-04-22T19:52:10.947Z,3.77
2018-04-22T19:54:39.327Z,4.47
2018-04-22T19:57:07.742Z,4.17
2018-04-22T19:59:36.075Z,10.33
2018-04-22T20:02:04.420Z,3.33
2018-04-22T20:04:32.845Z,3.20
2018-04-22T20:07:01.191Z,4.60
2018-04-22T20:09:29.593Z,3.27
2018-04-22T20:11:57.980Z,3.77
2018-04-22T20:14:26.646Z,4.47
2018-04-22T20:16:55.796Z,2.60
2018-04-22T20:19:24.169Z,3.90
2018-04-22T20:21:52.729Z,4.23
2018-04-22T20:24:22.014Z,3.27
2018-04-22T20:26:50.503Z,3.63
2018-04-22T20:29:18.881Z,3.47
2018-04-22T20:31:47.385Z,4.10
2018-04-22T20:34:15.751Z,4.27
2018-04-22T20:36:44.139Z,5.40
2018-04-22T20:39:12.638Z,6.20
2018-04-22T20:41:41.008Z,3.67
2018-04-22T20:44:09.347Z,4.17
2018-04-22T20:46:37.871Z,5.80
2018-04-22T20:49:06.334Z,2.40
2018-04-22T20:51:34.753Z,6.97
2018-04-22T20:54:03.375Z,3.97
2018-04-22T20:56:32.479Z,4.37
2018-04-22T20:59:00.856Z,6.07
2018-04-22T21:01:29.220Z,6.97
2018-04-22T21:03:58.376Z,6.27
2018-04-22T21:06:26.757Z,9.00
2018-04-22T21:08:55.110Z,7.67
2018-04-22T21:11:23.470Z,6.33
2018-04-22T21:13:51.985Z,4.90
2018-04-22T21:16:20.400Z,8.97
2018-04-22T21:18:48.744Z,5.97
2018-04-22T21:21:17.097Z,6.97
2018-04-22T21:23:45.529Z,6.10
2018-04-22T21:26:13.949Z,7.63
2018-04-22T21:28:42.378Z,4.53
2018-04-22T21:31:10.745Z,10.40
2018-04-22T21:33:39.110Z,7.07
2018-04-22T21:36:07.486Z,6.77
2018-04-22T21:38:35.857Z,10.87
2018-04-22T21:41:04.209Z,6.63
2018-04-22T21:43:32.676Z,8.60
2018-04-22T21:46:02.412Z,7.80
2018-04-22T21:48:30.792Z,4.70
2018-04-22T21:50:59.327Z,6.23
2018-04-22T21:53:27.681Z,4.83
2018-04-22T21:55:56.070Z,7.33
2018-04-22T21:58:24.421Z,6.40
2018-04-22T22:00:52.887Z,5.83
2018-04-22T22:03:22.004Z,5.00
2018-04-22T22:05:50.371Z,5.73
2018-04-22T22:08:18.859Z,7.13
2018-04-22T22:10:47.242Z,6.03
2018-04-22T22:13:16.447Z,8.10
2018-04-22T22:15:44.844Z,8.83
2018-04-22T22:18:13.810Z,9.53
2018-04-22T22:20:42.138Z,6.03
2018-04-22T22:23:10.540Z,5.73
2018-04-22T22:25:38.986Z,8.27
2018-04-22T22:28:07.314Z,7.37
2018-04-22T22:30:35.676Z,5.77
2018-04-22T22:33:04.043Z,6.20
2018-04-22T22:35:32.401Z,5.80
2018-04-22T22:38:00.814Z,8.53
2018-04-22T22:40:29.450Z,7.00
2018-04-22T22:42:57.855Z,5.97
2018-04-22T22:45:27.124Z,5.07
2018-04-22T22:47:55.499Z,6.10
2018-04-22T22:50:23.935Z,6.90
2018-04-22T22:52:52.348Z,7.77
2018-04-22T22:55:20.839Z,6.60
2018-04-22T22:57:50.207Z,6.10
2018-04-22T23:00:22.502Z,5.23
2018-04-22T23:02:50.956Z,6.10
2018-04-22T23:05:19.350Z,7.33
2018-04-22T23:07:47.698Z,5.57
2018-04-22T23:10:16.144Z,6.03
2018-04-22T23:12:44.505Z,9.30
2018-04-22T23:15:12.848Z,6.73
2018-04-22T23:17:41.275Z,9.30
2018-04-22T23:20:09.751Z,7.47
2018-04-22T23:22:38.119Z,7.87
2018-04-22T23:25:06.487Z,8.63
2018-04-22T23:27:35.606Z,7.97
2018-04-22T23:30:04.045Z,11.93
2018-04-22T23:32:32.567Z,8.20
2018-04-22T23:35:00.955Z,8.40
2018-04-22T23:37:30.165Z,7.87
2018-04-22T23:39:58.835Z,10.07
2018-04-22T23:42:27.177Z,9.27
2018-04-22T23:44:56.302Z,9.70
2018-04-22T23:47:24.640Z,7.43
2018-04-22T23:49:53.432Z,7.67
2018-04-22T23:52:21.787Z,10.33
2018-04-22T23:54:50.138Z,9.70
2018-04-22T23:57:18.508Z,8.63
2018-04-22T23:59:46.854Z,11.60
